sensor_id;sensor_type;location;lat;lon;timestamp;temperature;humidity
3715;DHT22;1873;49.988;8.674;2022-11-03T00:01:35;10.30;99.90
3715;DHT22;1873;49.988;8.674;2022-11-03T00:04:04;10.40;99.90
3715;DHT22;1873;49.988;8.674;2022-11-03T00:06:34;10.40;99.90
3715;DHT22;1873;49.988;8.674;2022-11-03T00:09:05;10.40;99.90
3715;DHT22;1873;49.988;8.674;2022-11-03T00:11:37;10.30;99.90
3715;DHT22;1873;49.988;8.674;2022-11-03T00:14:06;10.40;99.90
3715;DHT22;1873;49.988;8.674;2022-11-03T00:16:36;10.40;99.90
3715;DHT22;1873;49.988;8.674;2022-11-03T00:19:06;10.40;99.90
3715;DHT22;1873;49.988;8.674;2022-11-03T00:21:36;10.40;99.90
3715;DHT22;1873;49.988;8.674;2022-11-03T00:24:06;10.40;99.90
3715;DHT22;1873;49.988;8.674;2022-11-03T00:26:36;10.30;99.90
3715;DHT22;1873;49.988;8.674;2022-11-03T00:29:07;10.40;99.90
3715;DHT22;1873;49.988;8.674;2022-11-03T00:31:37;10.30;99.90
3715;DHT22;1873;49.988;8.674;2022-11-03T00:34:07;10.30;99.90
3715;DHT22;1873;49.988;8.674;2022-11-03T00:36:37;10.30;99.90
3715;DHT22;1873;49.988;8.674;2022-11-03T00:39:08;10.30;99.90
3715;DHT22;1873;49.988;8.674;2022-11-03T00:41:37;10.30;99.90
3715;DHT22;1873;49.988;8.674;2022-11-03T00:44:08;10.20;99.90
3715;DHT22;1873;49.988;8.674;2022-11-03T00:46:39;10.10;99.90
3715;DHT22;1873;49.988;8.674;2022-11-03T00:49:07;10.10;99.90
3715;DHT22;1873;49.988;8.674;2022-11-03T00:51:36;10.00;99.90
3715;DHT22;1873;49.988;8.674;2022-11-03T00:54:05;9.90;99.90
3715;DHT22;1873;49.988;8.674;2022-11-03T00:56:37;9.90;99.90
3715;DHT22;1873;49.988;8.674;2022-11-03T00:59:08;9.80;99.90
3715;DHT22;1873;49.988;8.674;2022-11-03T01:01:38;9.80;99.90
3715;DHT22;1873;49.988;8.674;2022-11-03T01:04:13;9.70;99.90
3715;DHT22;1873;49.988;8.674;2022-11-03T01:07:11;9.80;99.90
3715;DHT22;1873;49.988;8.674;2022-11-03T01:09:40;9.80;99.90
3715;DHT22;1873;49.988;8.674;2022-11-03T01:12:17;9.90;99.90
3715;DHT22;1873;49.988;8.674;2022-11-03T01:14:49;9.90;99.90
3715;DHT22;1873;49.988;8.674;2022-11-03T01:17:20;10.00;99.90
3715;DHT22;1873;49.988;8.674;2022-11-03T01:19:49;10.00;99.90
3715;DHT22;1873;49.988;8.674;2022-11-03T01:22:18;9.90;99.90
3715;DHT22;1873;49.988;8.674;2022-11-03T01:24:47;9.90;99.90
3715;DHT22;1873;49.988;8.674;2022-11-03T01:27:18;10.00;99.90
3715;DHT22;1873;49.988;8.674;2022-11-03T01:29:48;10.00;99.90
3715;DHT22;1873;49.988;8.674;2022-11-03T01:32:17;10.00;99.90
3715;DHT22;1873;49.988;8.674;2022-11-03T01:34:45;10.00;99.90
3715;DHT22;1873;49.988;8.674;2022-11-03T01:37:13;9.90;99.90
3715;DHT22;1873;49.988;8.674;2022-11-03T01:39:42;9.90;99.90
3715;DHT22;1873;49.988;8.674;2022-11-03T01:42:11;9.90;99.90
3715;DHT22;1873;49.988;8.674;2022-11-03T01:44:45;9.90;99.90
3715;DHT22;1873;49.988;8.674;2022-11-03T01:47:20;9.90;99.90
3715;DHT22;1873;49.988;8.674;2022-11-03T01:49:53;9.90;99.90
3715;DHT22;1873;49.988;8.674;2022-11-03T01:52:26;9.90;99.90
3715;DHT22;1873;49.988;8.674;2022-11-03T01:54:57;9.80;99.90
3715;DHT22;1873;49.988;8.674;2022-11-03T01:57:33;9.80;99.90
3715;DHT22;1873;49.988;8.674;2022-11-03T02:00:05;9.80;99.90
3715;DHT22;1873;49.988;8.674;2022-11-03T02:02:35;9.70;99.90
3715;DHT22;1873;49.988;8.674;2022-11-03T02:05:06;9.70;99.90
3715;DHT22;1873;49.988;8.674;2022-11-03T02:07:39;9.70;99.90
3715;DHT22;1873;49.988;8.674;2022-11-03T02:10:10;9.70;99.90
3715;DHT22;1873;49.988;8.674;2022-11-03T02:12:40;9.70;99.90
3715;DHT22;1873;49.988;8.674;2022-11-03T02:15:13;9.70;99.90
3715;DHT22;1873;49.988;8.674;2022-11-03T02:17:43;9.60;99.90
3715;DHT22;1873;49.988;8.674;2022-11-03T02:23:28;9.60;99.90
3715;DHT22;1873;49.988;8.674;2022-11-03T02:26:02;9.60;99.90
3715;DHT22;1873;49.988;8.674;2022-11-03T02:28:31;9.60;99.90
3715;DHT22;1873;49.988;8.674;2022-11-03T02:31:07;9.60;99.90
3715;DHT22;1873;49.988;8.674;2022-11-03T02:33:43;9.50;99.90
3715;DHT22;1873;49.988;8.674;2022-11-03T02:36:18;9.40;99.90
3715;DHT22;1873;49.988;8.674;2022-11-03T02:38:53;9.40;99.90
3715;DHT22;1873;49.988;8.674;2022-11-03T02:41:25;9.40;99.90
3715;DHT22;1873;49.988;8.674;2022-11-03T02:43:55;9.30;99.90
3715;DHT22;1873;49.988;8.674;2022-11-03T02:46:25;9.20;99.90
3715;DHT22;1873;49.988;8.674;2022-11-03T02:48:54;9.20;99.90
3715;DHT22;1873;49.988;8.674;2022-11-03T02:51:23;9.10;99.90
3715;DHT22;1873;49.988;8.674;2022-11-03T02:54:01;9.20;99.90
3715;DHT22;1873;49.988;8.674;2022-11-03T02:56:37;9.20;99.90
3715;DHT22;1873;49.988;8.674;2022-11-03T02:59:08;9.20;99.90
3715;DHT22;1873;49.988;8.674;2022-11-03T03:01:39;9.20;99.90
3715;DHT22;1873;49.988;8.674;2022-11-03T03:04:17;9.30;99.90
3715;DHT22;1873;49.988;8.674;2022-11-03T03:06:51;9.20;99.90
3715;DHT22;1873;49.988;8.674;2022-11-03T03:09:22;9.30;99.90
3715;DHT22;1873;49.988;8.674;2022-11-03T03:11:54;9.30;99.90
3715;DHT22;1873;49.988;8.674;2022-11-03T03:14:26;9.20;99.90
3715;DHT22;1873;49.988;8.674;2022-11-03T03:16:59;9.30;99.90
3715;DHT22;1873;49.988;8.674;2022-11-03T03:19:35;9.30;99.90
3715;DHT22;1873;49.988;8.674;2022-11-03T03:22:13;9.30;99.90
3715;DHT22;1873;49.988;8.674;2022-11-03T03:24:48;9.10;99.90
3715;DHT22;1873;49.988;8.674;2022-11-03T03:27:20;8.90;99.90
3715;DHT22;1873;49.988;8.674;2022-11-03T03:29:57;8.70;99.90
3715;DHT22;1873;49.988;8.674;2022-11-03T03:32:32;8.70;99.90
3715;DHT22;1873;49.988;8.674;2022-11-03T03:35:02;8.70;99.90
3715;DHT22;1873;49.988;8.674;2022-11-03T03:37:35;8.80;99.90
3715;DHT22;1873;49.988;8.674;2022-11-03T03:40:08;8.80;99.90
3715;DHT22;1873;49.988;8.674;2022-11-03T03:42:41;8.80;99.90
3715;DHT22;1873;49.988;8.674;2022-11-03T03:45:11;8.90;99.90
3715;DHT22;1873;49.988;8.674;2022-11-03T03:47:41;8.80;99.90
3715;DHT22;1873;49.988;8.674;2022-11-03T03:50:10;8.80;99.90
3715;DHT22;1873;49.988;8.674;2022-11-03T03:52:39;8.70;99.90
3715;DHT22;1873;49.988;8.674;2022-11-03T03:55:14;8.70;99.90
3715;DHT22;1873;49.988;8.674;2022-11-03T03:57:45;8.80;99.90
3715;DHT22;1873;49.988;8.674;2022-11-03T04:00:14;8.80;99.90
3715;DHT22;1873;49.988;8.674;2022-11-03T04:02:43;8.80;99.90
3715;DHT22;1873;49.988;8.674;2022-11-03T04:05:11;8.90;99.90
3715;DHT22;1873;49.988;8.674;2022-11-03T04:07:40;8.90;99.90
3715;DHT22;1873;49.988;8.674;2022-11-03T04:10:14;8.90;99.90
3715;DHT22;1873;49.988;8.674;2022-11-03T04:12:45;8.90;99.90
3715;DHT22;1873;49.988;8.674;2022-11-03T04:15:32;8.90;99.90
3715;DHT22;1873;49.988;8.674;2022-11-03T04:18:18;8.90;99.90
3715;DHT22;1873;49.988;8.674;2022-11-03T04:21:06;8.90;99.90
3715;DHT22;1873;49.988;8.674;2022-11-03T04:23:53;9.00;99.90
3715;DHT22;1873;49.988;8.674;2022-11-03T04:26:21;9.00;99.90
3715;DHT22;1873;49.988;8.674;2022-11-03T04:28:52;8.90;99.90
3715;DHT22;1873;49.988;8.674;2022-11-03T04:31:21;8.90;99.90
3715;DHT22;1873;49.988;8.674;2022-11-03T04:33:50;8.80;99.90
3715;DHT22;1873;49.988;8.674;2022-11-03T04:36:25;8.80;99.90
3715;DHT22;1873;49.988;8.674;2022-11-03T04:38:53;8.80;99.90
3715;DHT22;1873;49.988;8.674;2022-11-03T04:41:24;8.70;99.90
3715;DHT22;1873;49.988;8.674;2022-11-03T04:43:54;8.70;99.90
3715;DHT22;1873;49.988;8.674;2022-11-03T04:46:25;8.80;99.90
3715;DHT22;1873;49.988;8.674;2022-11-03T04:48:56;8.80;99.90
3715;DHT22;1873;49.988;8.674;2022-11-03T04:51:28;8.80;99.90
3715;DHT22;1873;49.988;8.674;2022-11-03T04:54:01;8.80;99.90
3715;DHT22;1873;49.988;8.674;2022-11-03T04:56:31;8.90;99.90
3715;DHT22;1873;49.988;8.674;2022-11-03T04:59:01;8.90;99.90
3715;DHT22;1873;49.988;8.674;2022-11-03T05:01:30;8.90;99.90
3715;DHT22;1873;49.988;8.674;2022-11-03T05:03:59;8.90;99.90
3715;DHT22;1873;49.988;8.674;2022-11-03T05:06:28;8.90;99.90
3715;DHT22;1873;49.988;8.674;2022-11-03T05:08:59;8.90;99.90
3715;DHT22;1873;49.988;8.674;2022-11-03T05:11:34;8.90;99.90
3715;DHT22;1873;49.988;8.674;2022-11-03T05:14:13;8.90;99.90
3715;DHT22;1873;49.988;8.674;2022-11-03T05:16:42;8.90;99.90
3715;DHT22;1873;49.988;8.674;2022-11-03T05:19:14;8.90;99.90
3715;DHT22;1873;49.988;8.674;2022-11-03T05:21:49;8.90;99.90
3715;DHT22;1873;49.988;8.674;2022-11-03T05:24:21;8.90;99.90
3715;DHT22;1873;49.988;8.674;2022-11-03T05:26:52;8.90;99.90
3715;DHT22;1873;49.988;8.674;2022-11-03T05:29:24;8.80;99.90
3715;DHT22;1873;49.988;8.674;2022-11-03T05:31:55;8.70;99.90
3715;DHT22;1873;49.988;8.674;2022-11-03T05:34:36;8.70;99.90
3715;DHT22;1873;49.988;8.674;2022-11-03T05:37:20;8.60;99.90
3715;DHT22;1873;49.988;8.674;2022-11-03T05:39:55;8.60;99.90
3715;DHT22;1873;49.988;8.674;2022-11-03T05:42:30;8.50;99.90
3715;DHT22;1873;49.988;8.674;2022-11-03T05:45:01;8.50;99.90
3715;DHT22;1873;49.988;8.674;2022-11-03T05:47:34;8.40;99.90
3715;DHT22;1873;49.988;8.674;2022-11-03T05:50:16;8.40;99.90
3715;DHT22;1873;49.988;8.674;2022-11-03T05:52:47;8.50;99.90
3715;DHT22;1873;49.988;8.674;2022-11-03T05:55:26;8.50;99.90
3715;DHT22;1873;49.988;8.674;2022-11-03T05:57:58;8.50;99.90
3715;DHT22;1873;49.988;8.674;2022-11-03T06:00:32;8.40;99.90
3715;DHT22;1873;49.988;8.674;2022-11-03T06:03:04;8.40;99.90
3715;DHT22;1873;49.988;8.674;2022-11-03T06:05:33;8.50;99.90
3715;DHT22;1873;49.988;8.674;2022-11-03T06:08:14;8.40;99.90
3715;DHT22;1873;49.988;8.674;2022-11-03T06:10:47;8.40;99.90
3715;DHT22;1873;49.988;8.674;2022-11-03T06:13:21;8.40;99.90
3715;DHT22;1873;49.988;8.674;2022-11-03T06:15:56;8.40;99.90
3715;DHT22;1873;49.988;8.674;2022-11-03T06:18:29;8.20;99.90
3715;DHT22;1873;49.988;8.674;2022-11-03T06:21:03;8.10;99.90
3715;DHT22;1873;49.988;8.674;2022-11-03T06:23:33;8.10;99.90
3715;DHT22;1873;49.988;8.674;2022-11-03T06:26:03;8.10;99.90
3715;DHT22;1873;49.988;8.674;2022-11-03T06:28:35;8.10;99.90
3715;DHT22;1873;49.988;8.674;2022-11-03T06:31:15;8.20;99.90
3715;DHT22;1873;49.988;8.674;2022-11-03T06:33:49;8.30;99.90
3715;DHT22;1873;49.988;8.674;2022-11-03T06:36:20;8.30;99.90
3715;DHT22;1873;49.988;8.674;2022-11-03T06:38:53;8.30;99.90
3715;DHT22;1873;49.988;8.674;2022-11-03T06:41:25;8.40;99.90
3715;DHT22;1873;49.988;8.674;2022-11-03T06:43:55;8.40;99.90
3715;DHT22;1873;49.988;8.674;2022-11-03T06:46:26;8.50;99.90
3715;DHT22;1873;49.988;8.674;2022-11-03T06:48:58;8.50;99.90
3715;DHT22;1873;49.988;8.674;2022-11-03T06:51:38;8.50;99.90
3715;DHT22;1873;49.988;8.674;2022-11-03T06:54:26;8.50;99.90
3715;DHT22;1873;49.988;8.674;2022-11-03T06:57:05;8.60;99.90
3715;DHT22;1873;49.988;8.674;2022-11-03T06:59:34;8.70;99.90
3715;DHT22;1873;49.988;8.674;2022-11-03T07:02:21;8.50;99.90
3715;DHT22;1873;49.988;8.674;2022-11-03T07:04:54;8.50;99.90
3715;DHT22;1873;49.988;8.674;2022-11-03T07:07:23;8.40;99.90
3715;DHT22;1873;49.988;8.674;2022-11-03T07:09:54;8.50;99.90
3715;DHT22;1873;49.988;8.674;2022-11-03T07:12:25;8.40;99.90
3715;DHT22;1873;49.988;8.674;2022-11-03T07:14:54;8.40;99.90
3715;DHT22;1873;49.988;8.674;2022-11-03T07:17:24;8.50;99.90
3715;DHT22;1873;49.988;8.674;2022-11-03T07:19:54;8.60;99.90
3715;DHT22;1873;49.988;8.674;2022-11-03T07:22:24;8.60;99.90
3715;DHT22;1873;49.988;8.674;2022-11-03T07:24:55;8.80;99.90
3715;DHT22;1873;49.988;8.674;2022-11-03T07:27:26;9.00;99.90
3715;DHT22;1873;49.988;8.674;2022-11-03T07:29:58;9.20;99.90
3715;DHT22;1873;49.988;8.674;2022-11-03T07:32:30;9.40;99.90
3715;DHT22;1873;49.988;8.674;2022-11-03T07:35:03;9.50;99.90
3715;DHT22;1873;49.988;8.674;2022-11-03T07:37:34;9.60;99.90
3715;DHT22;1873;49.988;8.674;2022-11-03T07:40:10;9.70;99.90
3715;DHT22;1873;49.988;8.674;2022-11-03T07:42:39;9.70;99.90
3715;DHT22;1873;49.988;8.674;2022-11-03T07:45:34;9.80;99.90
3715;DHT22;1873;49.988;8.674;2022-11-03T07:48:13;9.90;99.90
3715;DHT22;1873;49.988;8.674;2022-11-03T07:50:46;10.00;99.90
3715;DHT22;1873;49.988;8.674;2022-11-03T07:53:19;10.10;99.90
3715;DHT22;1873;49.988;8.674;2022-11-03T07:55:53;10.20;99.90
3715;DHT22;1873;49.988;8.674;2022-11-03T07:58:28;10.30;99.90
3715;DHT22;1873;49.988;8.674;2022-11-03T08:00:57;10.40;99.90
3715;DHT22;1873;49.988;8.674;2022-11-03T08:03:35;10.40;99.90
3715;DHT22;1873;49.988;8.674;2022-11-03T08:06:04;10.40;99.90
3715;DHT22;1873;49.988;8.674;2022-11-03T08:08:36;10.50;99.90
3715;DHT22;1873;49.988;8.674;2022-11-03T08:11:05;10.60;99.90
3715;DHT22;1873;49.988;8.674;2022-11-03T08:13:34;10.70;99.90
3715;DHT22;1873;49.988;8.674;2022-11-03T08:16:03;10.70;99.90
3715;DHT22;1873;49.988;8.674;2022-11-03T08:18:33;10.70;99.90
3715;DHT22;1873;49.988;8.674;2022-11-03T08:21:03;10.80;99.90
3715;DHT22;1873;49.988;8.674;2022-11-03T08:23:34;11.00;99.90
3715;DHT22;1873;49.988;8.674;2022-11-03T08:26:03;11.20;99.90
3715;DHT22;1873;49.988;8.674;2022-11-03T08:28:33;11.50;99.90
3715;DHT22;1873;49.988;8.674;2022-11-03T08:31:03;11.70;99.90
3715;DHT22;1873;49.988;8.674;2022-11-03T08:33:40;11.90;99.90
3715;DHT22;1873;49.988;8.674;2022-11-03T08:36:08;12.10;99.90
3715;DHT22;1873;49.988;8.674;2022-11-03T08:38:37;12.20;99.90
3715;DHT22;1873;49.988;8.674;2022-11-03T08:41:05;12.20;99.90
3715;DHT22;1873;49.988;8.674;2022-11-03T08:43:34;12.40;99.90
3715;DHT22;1873;49.988;8.674;2022-11-03T08:46:09;12.60;99.90
3715;DHT22;1873;49.988;8.674;2022-11-03T08:48:45;12.90;99.90
3715;DHT22;1873;49.988;8.674;2022-11-03T08:51:15;13.00;99.90
3715;DHT22;1873;49.988;8.674;2022-11-03T09:01:32;13.00;99.90
3715;DHT22;1873;49.988;8.674;2022-11-03T09:23:12;13.00;99.90
3715;DHT22;1873;49.988;8.674;2022-11-03T09:25:40;13.10;99.90
3715;DHT22;1873;49.988;8.674;2022-11-03T09:28:15;13.10;99.90
3715;DHT22;1873;49.988;8.674;2022-11-03T09:30:47;13.00;99.90
3715;DHT22;1873;49.988;8.674;2022-11-03T09:33:17;12.80;99.90
3715;DHT22;1873;49.988;8.674;2022-11-03T09:35:45;12.70;99.90
3715;DHT22;1873;49.988;8.674;2022-11-03T09:38:17;12.70;99.90
3715;DHT22;1873;49.988;8.674;2022-11-03T09:40:48;12.70;99.90
3715;DHT22;1873;49.988;8.674;2022-11-03T09:43:17;12.60;99.90
3715;DHT22;1873;49.988;8.674;2022-11-03T09:45:59;12.70;99.90
3715;DHT22;1873;49.988;8.674;2022-11-03T09:48:27;12.80;99.90
3715;DHT22;1873;49.988;8.674;2022-11-03T09:50:56;12.70;99.90
3715;DHT22;1873;49.988;8.674;2022-11-03T09:53:26;12.70;99.90
3715;DHT22;1873;49.988;8.674;2022-11-03T09:55:54;12.70;99.90
3715;DHT22;1873;49.988;8.674;2022-11-03T09:58:23;12.70;99.90
3715;DHT22;1873;49.988;8.674;2022-11-03T10:00:51;12.60;99.90
3715;DHT22;1873;49.988;8.674;2022-11-03T10:03:20;12.50;99.90
3715;DHT22;1873;49.988;8.674;2022-11-03T10:05:52;12.40;99.90
3715;DHT22;1873;49.988;8.674;2022-11-03T10:08:53;12.40;99.90
3715;DHT22;1873;49.988;8.674;2022-11-03T10:11:24;12.50;99.90
3715;DHT22;1873;49.988;8.674;2022-11-03T10:13:55;12.60;99.90
3715;DHT22;1873;49.988;8.674;2022-11-03T10:16:25;12.80;99.90
3715;DHT22;1873;49.988;8.674;2022-11-03T10:18:57;12.90;99.90
3715;DHT22;1873;49.988;8.674;2022-11-03T10:21:32;13.00;99.90
3715;DHT22;1873;49.988;8.674;2022-11-03T10:24:12;13.10;99.90
3715;DHT22;1873;49.988;8.674;2022-11-03T10:26:44;13.10;99.90
3715;DHT22;1873;49.988;8.674;2022-11-03T10:29:23;13.10;99.90
3715;DHT22;1873;49.988;8.674;2022-11-03T10:31:54;13.10;99.90
3715;DHT22;1873;49.988;8.674;2022-11-03T10:34:34;13.20;99.90
3715;DHT22;1873;49.988;8.674;2022-11-03T10:37:14;13.30;99.90
3715;DHT22;1873;49.988;8.674;2022-11-03T10:39:48;13.30;99.90
3715;DHT22;1873;49.988;8.674;2022-11-03T10:42:19;13.40;99.90
3715;DHT22;1873;49.988;8.674;2022-11-03T10:44:50;13.50;99.90
3715;DHT22;1873;49.988;8.674;2022-11-03T10:47:25;13.60;99.90
3715;DHT22;1873;49.988;8.674;2022-11-03T10:49:55;13.60;99.90
3715;DHT22;1873;49.988;8.674;2022-11-03T10:52:25;13.60;99.90
3715;DHT22;1873;49.988;8.674;2022-11-03T10:54:58;13.60;99.90
3715;DHT22;1873;49.988;8.674;2022-11-03T10:57:27;13.50;99.90
3715;DHT22;1873;49.988;8.674;2022-11-03T10:59:56;13.60;99.90
3715;DHT22;1873;49.988;8.674;2022-11-03T11:02:30;13.50;99.90
3715;DHT22;1873;49.988;8.674;2022-11-03T11:05:11;13.50;99.90
3715;DHT22;1873;49.988;8.674;2022-11-03T11:07:43;13.50;99.90
3715;DHT22;1873;49.988;8.674;2022-11-03T11:10:26;13.40;99.90
3715;DHT22;1873;49.988;8.674;2022-11-03T11:13:11;13.30;99.90
3715;DHT22;1873;49.988;8.674;2022-11-03T11:15:52;13.20;99.90
3715;DHT22;1873;49.988;8.674;2022-11-03T11:18:59;13.20;99.90
3715;DHT22;1873;49.988;8.674;2022-11-03T11:21:49;13.20;99.90
3715;DHT22;1873;49.988;8.674;2022-11-03T11:28:00;13.10;99.90
3715;DHT22;1873;49.988;8.674;2022-11-03T11:31:10;13.20;99.90
3715;DHT22;1873;49.988;8.674;2022-11-03T11:37:33;13.10;99.90
3715;DHT22;1873;49.988;8.674;2022-11-03T11:40:12;13.10;99.90
3715;DHT22;1873;49.988;8.674;2022-11-03T11:46:35;13.10;99.90
3715;DHT22;1873;49.988;8.674;2022-11-03T11:49:16;13.10;99.90
3715;DHT22;1873;49.988;8.674;2022-11-03T11:51:46;13.10;99.90
3715;DHT22;1873;49.988;8.674;2022-11-03T11:54:18;13.10;99.90
3715;DHT22;1873;49.988;8.674;2022-11-03T11:56:50;13.10;99.90
3715;DHT22;1873;49.988;8.674;2022-11-03T11:59:21;13.10;99.90
3715;DHT22;1873;49.988;8.674;2022-11-03T12:01:54;13.00;99.90
3715;DHT22;1873;49.988;8.674;2022-11-03T12:04:26;13.10;99.90
3715;DHT22;1873;49.988;8.674;2022-11-03T12:07:11;13.00;99.90
3715;DHT22;1873;49.988;8.674;2022-11-03T12:09:48;13.00;99.90
3715;DHT22;1873;49.988;8.674;2022-11-03T12:12:33;13.00;99.90
3715;DHT22;1873;49.988;8.674;2022-11-03T12:15:03;13.00;99.90
3715;DHT22;1873;49.988;8.674;2022-11-03T12:17:33;13.00;99.90
3715;DHT22;1873;49.988;8.674;2022-11-03T12:20:42;13.00;99.90
3715;DHT22;1873;49.988;8.674;2022-11-03T12:23:35;13.00;99.90
3715;DHT22;1873;49.988;8.674;2022-11-03T12:26:04;12.90;99.90
3715;DHT22;1873;49.988;8.674;2022-11-03T12:28:34;12.80;99.90
3715;DHT22;1873;49.988;8.674;2022-11-03T12:31:03;12.90;99.90
3715;DHT22;1873;49.988;8.674;2022-11-03T12:33:37;12.80;99.90
3715;DHT22;1873;49.988;8.674;2022-11-03T12:36:06;12.80;99.90
3715;DHT22;1873;49.988;8.674;2022-11-03T12:38:35;12.80;99.90
3715;DHT22;1873;49.988;8.674;2022-11-03T12:41:05;12.60;99.90
3715;DHT22;1873;49.988;8.674;2022-11-03T12:43:51;12.50;99.90
3715;DHT22;1873;49.988;8.674;2022-11-03T12:46:22;12.40;99.90
3715;DHT22;1873;49.988;8.674;2022-11-03T12:48:56;12.30;99.90
3715;DHT22;1873;49.988;8.674;2022-11-03T12:51:26;12.30;99.90
3715;DHT22;1873;49.988;8.674;2022-11-03T12:53:55;12.30;99.90
3715;DHT22;1873;49.988;8.674;2022-11-03T12:56:24;12.30;99.90
3715;DHT22;1873;49.988;8.674;2022-11-03T12:58:52;12.40;99.90
3715;DHT22;1873;49.988;8.674;2022-11-03T13:01:21;12.40;99.90
3715;DHT22;1873;49.988;8.674;2022-11-03T13:03:53;12.50;99.90
3715;DHT22;1873;49.988;8.674;2022-11-03T13:06:23;12.50;99.90
3715;DHT22;1873;49.988;8.674;2022-11-03T13:08:54;12.50;99.90
3715;DHT22;1873;49.988;8.674;2022-11-03T13:11:34;12.60;99.90
3715;DHT22;1873;49.988;8.674;2022-11-03T13:14:19;12.70;99.90
3715;DHT22;1873;49.988;8.674;2022-11-03T13:16:49;12.60;99.90
3715;DHT22;1873;49.988;8.674;2022-11-03T13:19:19;12.60;99.90
3715;DHT22;1873;49.988;8.674;2022-11-03T13:21:51;12.60;99.90
3715;DHT22;1873;49.988;8.674;2022-11-03T13:24:20;12.60;99.90
3715;DHT22;1873;49.988;8.674;2022-11-03T13:26:49;12.50;99.90
3715;DHT22;1873;49.988;8.674;2022-11-03T13:29:17;12.50;99.90
3715;DHT22;1873;49.988;8.674;2022-11-03T13:31:46;12.50;99.90
3715;DHT22;1873;49.988;8.674;2022-11-03T13:34:18;12.60;99.90
3715;DHT22;1873;49.988;8.674;2022-11-03T13:41:08;12.70;99.90
3715;DHT22;1873;49.988;8.674;2022-11-03T13:44:00;12.70;99.90
3715;DHT22;1873;49.988;8.674;2022-11-03T13:46:28;12.80;99.90
3715;DHT22;1873;49.988;8.674;2022-11-03T13:53:10;12.80;99.90
3715;DHT22;1873;49.988;8.674;2022-11-03T13:56:34;12.70;99.90
3715;DHT22;1873;49.988;8.674;2022-11-03T13:59:22;12.80;99.90
3715;DHT22;1873;49.988;8.674;2022-11-03T14:01:52;12.80;99.90
3715;DHT22;1873;49.988;8.674;2022-11-03T14:04:40;12.80;99.90
3715;DHT22;1873;49.988;8.674;2022-11-03T14:07:10;12.80;99.90
3715;DHT22;1873;49.988;8.674;2022-11-03T14:09:39;12.80;99.90
3715;DHT22;1873;49.988;8.674;2022-11-03T14:12:12;12.80;99.90
3715;DHT22;1873;49.988;8.674;2022-11-03T14:15:01;12.80;99.90
3715;DHT22;1873;49.988;8.674;2022-11-03T14:17:30;12.80;99.90
3715;DHT22;1873;49.988;8.674;2022-11-03T14:20:01;12.80;99.90
3715;DHT22;1873;49.988;8.674;2022-11-03T14:22:31;12.80;99.90
3715;DHT22;1873;49.988;8.674;2022-11-03T14:24:59;12.80;99.90
3715;DHT22;1873;49.988;8.674;2022-11-03T14:27:30;12.80;99.90
3715;DHT22;1873;49.988;8.674;2022-11-03T14:30:00;12.80;99.90
3715;DHT22;1873;49.988;8.674;2022-11-03T14:32:29;12.80;99.90
3715;DHT22;1873;49.988;8.674;2022-11-03T14:34:57;12.80;99.90
3715;DHT22;1873;49.988;8.674;2022-11-03T14:37:28;12.80;99.90
3715;DHT22;1873;49.988;8.674;2022-11-03T14:39:56;12.80;99.90
3715;DHT22;1873;49.988;8.674;2022-11-03T14:42:25;12.80;99.90
3715;DHT22;1873;49.988;8.674;2022-11-03T14:44:56;12.80;99.90
3715;DHT22;1873;49.988;8.674;2022-11-03T14:47:24;12.70;99.90
3715;DHT22;1873;49.988;8.674;2022-11-03T14:49:54;12.70;99.90
3715;DHT22;1873;49.988;8.674;2022-11-03T14:58:33;12.80;99.90
3715;DHT22;1873;49.988;8.674;2022-11-03T15:01:03;12.80;99.90
3715;DHT22;1873;49.988;8.674;2022-11-03T15:03:32;12.80;99.90
3715;DHT22;1873;49.988;8.674;2022-11-03T15:06:00;12.80;99.90
3715;DHT22;1873;49.988;8.674;2022-11-03T15:08:30;12.80;99.90
3715;DHT22;1873;49.988;8.674;2022-11-03T15:10:58;12.80;99.90
3715;DHT22;1873;49.988;8.674;2022-11-03T15:13:26;12.80;99.90
3715;DHT22;1873;49.988;8.674;2022-11-03T15:15:55;12.70;99.90
3715;DHT22;1873;49.988;8.674;2022-11-03T15:18:25;12.70;99.90
3715;DHT22;1873;49.988;8.674;2022-11-03T15:24:03;12.70;99.90
3715;DHT22;1873;49.988;8.674;2022-11-03T15:26:52;12.70;99.90
3715;DHT22;1873;49.988;8.674;2022-11-03T15:29:20;12.70;99.90
3715;DHT22;1873;49.988;8.674;2022-11-03T15:31:50;12.70;99.90
3715;DHT22;1873;49.988;8.674;2022-11-03T15:34:20;12.70;99.90
3715;DHT22;1873;49.988;8.674;2022-11-03T15:36:49;12.60;99.90
3715;DHT22;1873;49.988;8.674;2022-11-03T15:39:17;12.60;99.90
3715;DHT22;1873;49.988;8.674;2022-11-03T15:41:45;12.70;99.90
3715;DHT22;1873;49.988;8.674;2022-11-03T15:44:15;12.60;99.90
3715;DHT22;1873;49.988;8.674;2022-11-03T15:46:43;12.70;99.90
3715;DHT22;1873;49.988;8.674;2022-11-03T15:49:11;12.70;99.90
3715;DHT22;1873;49.988;8.674;2022-11-03T15:51:43;12.70;99.90
3715;DHT22;1873;49.988;8.674;2022-11-03T15:54:11;12.80;99.90
3715;DHT22;1873;49.988;8.674;2022-11-03T15:56:39;12.70;99.90
3715;DHT22;1873;49.988;8.674;2022-11-03T15:59:08;12.70;99.90
3715;DHT22;1873;49.988;8.674;2022-11-03T16:01:36;12.60;99.90
3715;DHT22;1873;49.988;8.674;2022-11-03T16:04:05;12.60;99.90
3715;DHT22;1873;49.988;8.674;2022-11-03T16:06:33;12.60;99.90
3715;DHT22;1873;49.988;8.674;2022-11-03T16:09:23;12.60;99.90
3715;DHT22;1873;49.988;8.674;2022-11-03T16:11:51;12.50;99.90
3715;DHT22;1873;49.988;8.674;2022-11-03T16:14:20;12.50;99.90
3715;DHT22;1873;49.988;8.674;2022-11-03T16:16:48;12.50;99.90
3715;DHT22;1873;49.988;8.674;2022-11-03T16:19:16;12.40;99.90
3715;DHT22;1873;49.988;8.674;2022-11-03T16:21:47;12.40;99.90
3715;DHT22;1873;49.988;8.674;2022-11-03T16:24:15;12.40;99.90
3715;DHT22;1873;49.988;8.674;2022-11-03T16:26:46;12.40;99.90
3715;DHT22;1873;49.988;8.674;2022-11-03T16:29:16;12.40;99.90
3715;DHT22;1873;49.988;8.674;2022-11-03T16:31:44;12.40;99.90
3715;DHT22;1873;49.988;8.674;2022-11-03T16:34:18;12.40;99.90
3715;DHT22;1873;49.988;8.674;2022-11-03T16:36:46;12.30;99.90
3715;DHT22;1873;49.988;8.674;2022-11-03T16:39:15;12.30;99.90
3715;DHT22;1873;49.988;8.674;2022-11-03T16:41:52;12.30;99.90
3715;DHT22;1873;49.988;8.674;2022-11-03T16:44:22;12.30;99.90
3715;DHT22;1873;49.988;8.674;2022-11-03T16:46:51;12.30;99.90
3715;DHT22;1873;49.988;8.674;2022-11-03T16:49:19;12.30;99.90
3715;DHT22;1873;49.988;8.674;2022-11-03T16:51:48;12.30;99.90
3715;DHT22;1873;49.988;8.674;2022-11-03T16:54:17;12.30;99.90
3715;DHT22;1873;49.988;8.674;2022-11-03T16:56:46;12.30;99.90
3715;DHT22;1873;49.988;8.674;2022-11-03T16:59:22;12.30;99.90
3715;DHT22;1873;49.988;8.674;2022-11-03T17:05:59;12.20;99.90
3715;DHT22;1873;49.988;8.674;2022-11-03T17:08:27;12.10;99.90
3715;DHT22;1873;49.988;8.674;2022-11-03T17:11:23;12.00;99.90
3715;DHT22;1873;49.988;8.674;2022-11-03T17:17:20;11.90;99.90
3715;DHT22;1873;49.988;8.674;2022-11-03T17:20:28;11.90;99.90
3715;DHT22;1873;49.988;8.674;2022-11-03T17:23:16;11.90;99.90
3715;DHT22;1873;49.988;8.674;2022-11-03T17:26:32;11.80;99.90
3715;DHT22;1873;49.988;8.674;2022-11-03T17:30:04;11.80;99.90
3715;DHT22;1873;49.988;8.674;2022-11-03T17:36:39;11.80;99.90
3715;DHT22;1873;49.988;8.674;2022-11-03T17:39:08;11.80;99.90
3715;DHT22;1873;49.988;8.674;2022-11-03T17:41:41;11.90;99.90
3715;DHT22;1873;49.988;8.674;2022-11-03T17:44:10;11.80;99.90
3715;DHT22;1873;49.988;8.674;2022-11-03T17:46:45;11.80;99.90
3715;DHT22;1873;49.988;8.674;2022-11-03T17:49:13;11.80;99.90
3715;DHT22;1873;49.988;8.674;2022-11-03T17:51:43;11.90;99.90
3715;DHT22;1873;49.988;8.674;2022-11-03T17:54:18;11.90;99.90
3715;DHT22;1873;49.988;8.674;2022-11-03T17:56:48;11.90;99.90